Latest Weather Observations for Kempsey Airport

IDN60801

Issued at 5:04 pm EDT Friday 19 December 2014 (issued every 30 minutes, with the page automatically refreshed every 10 minutes)

About weather observations | Map of weather stations | Latest weather observations for NSW | Other Formats
Station Details ID: 059007 Name: KEMPSEY AIRPORT AWS Lat: -31.07 Lon: 152.77 Height: 13.0 m
Data from the previous 72 hours. | See also: Recent months for locations in New South Wales
Date/Time
EDT
Temp
°C
App
Temp
°C
Dew
Point
Rel
Hum
%
Delta-T
°C
Wind Press
QNH
hPa
Press
MSL
hPa
Rain
since 9 am
mm
Dir
 
Spd
km/h
Gust
km/h
Spd
kts
Gust
kts
19/05:00pm 25.2 21.7 13.4 48 6.9 SE 24 32 13 17 1011.0 1010.9 0.0
19/04:30pm 25.4 22.3 14.5 51 6.5 SE 24 33 13 18 1010.8 1010.7 0.0
19/04:00pm 25.4 22.3 14.5 51 6.5 SE 24 39 13 21 1010.6 1010.5 0.0
19/03:30pm 25.7 21.9 14.8 51 6.5 SE 28 39 15 21 1010.2 1010.1 0.0
19/03:00pm 26.0 22.7 15.1 51 6.6 SE 26 43 14 23 1010.2 1010.1 0.0
19/02:30pm 25.6 21.8 14.7 51 6.5 SE 28 39 15 21 1010.4 1010.3 0.0
19/02:00pm 26.2 22.7 15.6 52 6.5 SE 28 37 15 20 1010.2 1010.1 0.0
19/01:30pm 26.1 23.1 14.9 50 6.7 ESE 24 33 13 18 1010.1 1010.0 0.0
19/01:00pm 27.5 24.3 15.2 47 7.5 SE 26 37 14 20 1010.1 1010.0 0.0
19/12:30pm 27.3 24.2 15.6 48 7.1 SE 26 37 14 20 1010.1 1010.0 0.0
19/12:00pm 26.9 23.5 15.9 51 6.8 SE 28 37 15 20 1010.2 1010.1 0.0
19/11:30am 27.0 23.8 16.3 52 6.6 SE 28 37 15 20 1010.0 1009.9 0.0
19/11:00am 28.0 24.9 14.6 44 8.1 SE 24 33 13 18 1009.5 1009.4 0.0
19/10:30am 30.6 28.7 10.5 29 11.5 WSW 11 28 6 15 1009.5 1009.4 0.0
19/10:00am 29.3 28.2 11.8 34 10.2 W 9 17 5 9 1009.5 1009.4 0.0
19/09:30am 28.5 25.9 10.7 33 10.1 W 15 20 8 11 1009.3 1009.2 0.0
19/09:00am 27.6 24.9 11.6 37 9.2 NW 17 24 9 13 1008.9 1008.8 10.8
19/08:30am 26.2 24.1 12.3 42 8.0 WNW 15 20 8 11 1009.0 1008.9 10.8
19/08:00am 24.8 22.4 11.4 43 7.6 WNW 15 20 8 11 1008.8 1008.7 10.8
19/07:30am 23.6 19.6 10.6 44 7.2 NW 22 28 12 15 1008.5 1008.4 10.8
19/07:00am 22.6 18.5 10.1 45 6.8 WNW 22 32 12 17 1008.4 1008.3 10.8
19/06:30am 20.0 17.3 10.4 54 5.2 WNW 15 22 8 12 1008.2 1008.1 10.8
19/06:00am 18.2 15.8 11.3 64 3.8 WNW 15 17 8 9 1007.7 1007.6 10.8
19/05:30am 15.8 14.5 11.2 74 2.5 WNW 9 11 5 6 1007.4 1007.3 10.8
19/05:00am 15.6 16.5 12.9 84 1.5 CALM 0 0 0 0 1007.0 1006.9 10.8
19/04:30am 17.2 16.9 13.3 78 2.2 WNW 7 9 4 5 1006.8 1006.7 10.8
19/04:00am 19.1 18.7 15.2 78 2.3 W 11 15 6 8 1006.6 1006.5 10.8
19/03:30am 20.6 18.6 15.6 73 3.0 NW 20 28 11 15 1006.6 1006.5 10.8
19/03:00am 20.3 19.0 17.3 83 1.8 NW 20 26 11 14 1006.8 1006.7 10.8
19/02:30am 20.3 19.6 18.2 88 1.3 WNW 19 24 10 13 1006.7 1006.6 10.8
19/02:00am 21.0 20.3 18.6 86 1.5 NW 20 28 11 15 1006.7 1006.6 10.8
19/01:30am 21.6 20.9 18.6 83 1.9 NW 20 28 11 15 1006.9 1006.8 10.8
19/01:00am 21.7 21.6 18.7 83 1.9 NW 17 24 9 13 1006.9 1006.8 10.8
19/12:30am 22.1 21.4 18.7 81 2.1 NW 20 28 11 15 1007.0 1006.9 10.8
19/12:00am 22.2 21.5 19.4 84 1.8 NW 22 32 12 17 1007.2 1007.1 10.8
 
Date/Time
EDT
Temp
°C
App
Temp
°C
Dew
Point
Rel
Hum
%
Delta-T
°C
Wind Press
QNH
hPa
Press
MSL
hPa
Rain
since 9 am
mm
Dir
 
Spd
km/h
Gust
km/h
Spd
kts
Gust
kts
18/11:30pm 22.3 22.3 19.7 85 1.7 WNW 19 26 10 14 1007.6 1007.5 10.8
18/11:00pm 21.7 22.9 19.8 89 1.2 WNW 13 19 7 10 1007.8 1007.7 10.8
18/10:30pm 21.8 23.0 19.9 89 1.2 WNW 13 20 7 11 1008.1 1008.0 10.8
18/10:00pm 21.5 23.8 19.8 90 1.1 NW 7 11 4 6 1007.8 1007.7 10.8
18/09:30pm 21.2 23.5 19.5 90 1.1 NW 6 9 3 5 1007.8 1007.7 10.8
18/09:00pm 21.6 23.8 19.7 89 1.2 NNW 7 9 4 5 1007.9 1007.8 10.8
18/08:30pm 21.9 23.8 19.8 88 1.3 N 9 15 5 8 1007.6 1007.5 10.8
18/08:00pm 22.0 25.2 20.5 91 1.0 N 4 9 2 5 1007.3 1007.2 10.8
18/07:30pm 22.1 26.0 20.4 90 1.1 CALM 0 0 0 0 1006.8 1006.7 10.8
18/07:00pm 22.3 25.1 20.4 89 1.2 N 6 9 3 5 1006.2 1006.1 10.8
18/06:30pm 22.5 24.8 20.6 89 1.2 N 9 11 5 6 1006.1 1006.0 10.8
18/06:00pm 22.3 24.1 20.4 89 1.2 N 11 13 6 7 1006.0 1005.9 10.8
18/05:30pm 22.5 24.0 20.6 89 1.2 N 13 19 7 10 1006.4 1006.3 10.8
18/05:00pm 23.1 25.0 21.4 90 1.1 N 13 17 7 9 1006.7 1006.6 10.2
18/04:30pm 23.1 24.4 20.8 87 1.5 N 15 32 8 17 1007.1 1007.0 10.2
18/04:00pm 23.3 24.0 21.2 88 1.4 SE 19 33 10 18 1005.0 1004.9 10.0
18/03:30pm 25.5 27.5 20.7 75 3.1 E 11 19 6 10 1004.5 1004.4 0.0
18/03:00pm 26.4 26.8 20.7 71 3.8 E 19 24 10 13 1003.6 1003.5 0.0
18/02:30pm 26.5 28.1 20.8 71 3.8 ENE 13 19 7 10 1004.7 1004.6 0.0
18/02:00pm 26.9 28.0 20.5 68 4.2 ENE 15 26 8 14 1005.7 1005.6 0.0
18/01:30pm 26.6 27.2 20.2 68 4.2 NE 17 20 9 11 1006.7 1006.6 0.0
18/01:00pm 26.2 26.6 19.8 68 4.2 NE 17 24 9 13 1007.1 1007.0 0.0
18/12:30pm 26.5 27.0 20.1 68 4.2 NE 17 24 9 13 1007.3 1007.2 0.0
18/12:00pm 25.7 26.1 19.8 70 3.8 ENE 17 20 9 11 1007.9 1007.8 0.0
18/11:30am 26.2 26.7 20.1 69 4.0 NE 17 26 9 14 1008.0 1007.9 0.0
18/11:00am 25.6 26.6 19.5 69 3.9 NE 13 17 7 9 1008.5 1008.4 0.0
18/10:30am 25.1 25.7 18.5 67 4.2 NNE 13 17 7 9 1008.5 1008.4 0.0
18/10:00am 24.4 25.5 18.8 71 3.6 NE 11 13 6 7 1008.3 1008.2 0.0
18/09:30am 23.7 24.2 18.4 72 3.3 NNE 13 17 7 9 1008.5 1008.4 0.0
18/09:00am 23.6 25.0 18.7 74 3.1 N 9 15 5 8 1008.9 1008.8 1.2
18/08:30am 23.5 24.3 19.0 76 2.9 NW 13 19 7 10 1009.3 1009.2 1.2
18/08:00am 22.6 24.1 19.0 80 2.3 W 9 11 5 6 1009.7 1009.6 1.2
18/07:30am 21.5 22.8 18.5 83 1.9 W 9 13 5 7 1009.8 1009.7 1.2
18/07:00am 21.2 23.3 18.2 83 1.9 WNW 4 9 2 5 1009.3 1009.2 1.2
18/06:30am 20.1 23.0 18.2 89 1.2 CALM 0 0 0 0 1009.4 1009.3 1.2
18/06:00am 19.4 22.1 17.7 90 1.0 CALM 0 0 0 0 1009.9 1009.8 1.2
18/05:30am 19.3 21.9 17.6 90 1.0 CALM 0 0 0 0 1009.7 1009.6 1.2
18/05:00am 19.2 21.7 17.3 89 1.2 CALM 0 0 0 0 1009.5 1009.4 1.2
18/04:30am 19.5 22.1 17.5 88 1.2 CALM 0 0 0 0 1009.7 1009.6 1.2
18/04:00am 19.8 21.8 17.8 88 1.2 W 4 7 2 4 1009.5 1009.4 1.2
18/03:30am 19.7 21.3 17.8 89 1.2 WNW 6 7 3 4 1009.4 1009.3 1.2
18/03:00am 19.4 20.7 17.5 89 1.2 SSW 7 9 4 5 1008.9 1008.8 1.2
18/02:30am 19.9 22.5 17.5 86 1.5 CALM 0 7 0 4 1009.0 1008.9 1.2
18/02:00am 20.0 20.5 17.4 85 1.6 WNW 11 15 6 8 1009.9 1009.8 1.2
18/01:30am 19.7 21.0 17.5 87 1.3 WNW 7 9 4 5 1010.1 1010.0 1.2
18/01:00am 19.6 20.8 17.4 87 1.3 WNW 7 11 4 6 1009.9 1009.8 1.2
18/12:30am 19.3 20.5 17.3 88 1.2 SSW 7 11 4 6 1009.9 1009.8 1.2
18/12:00am 19.4 20.8 17.4 88 1.2 SSW 6 9 3 5 1010.6 1010.5 1.2
 
Date/Time
EDT
Temp
°C
App
Temp
°C
Dew
Point
Rel
Hum
%
Delta-T
°C
Wind Press
QNH
hPa
Press
MSL
hPa
Rain
since 9 am
mm
Dir
 
Spd
km/h
Gust
km/h
Spd
kts
Gust
kts
17/11:30pm 19.5 21.0 17.6 89 1.2 SE 6 9 3 5 1010.3 1010.2 1.2
17/11:00pm 19.3 21.6 17.6 90 1.0 NW 2 6 1 3 1011.0 1010.9 1.2
17/10:30pm 18.8 19.6 17.3 91 0.9 NW 9 13 5 7 1010.5 1010.4 1.2
17/10:00pm 18.9 18.5 17.2 90 1.0 SW 15 22 8 12 1009.8 1009.7 1.2
17/09:30pm 19.4 21.6 17.5 89 1.2 SSW 2 9 1 5 1009.0 1008.9 1.2
17/09:00pm 19.7 21.1 17.7 88 1.2 N 7 13 4 7 1010.0 1009.9 0.8
17/08:30pm 19.7 19.7 17.1 85 1.6 WNW 13 15 7 8 1009.9 1009.8 0.8
17/08:00pm 19.7 20.3 17.7 88 1.2 NNE 11 17 6 9 1009.3 1009.2 0.8
17/07:30pm 20.0 22.5 17.2 84 1.7 CALM 0 0 0 0 1009.3 1009.2 0.8
17/07:00pm 21.0 21.5 16.6 76 2.7 S 9 15 5 8 1008.6 1008.5 0.0
17/06:30pm 22.0 21.5 15.8 68 3.7 SE 13 22 7 12 1007.6 1007.5 0.0
17/06:00pm 22.3 20.5 15.9 67 3.9 SSE 20 30 11 16 1007.3 1007.2 0.0
17/05:30pm 22.7 22.4 16.5 68 3.8 SSE 13 20 7 11 1007.5 1007.4 0.0
17/05:00pm 22.7 21.9 17.2 71 3.4 SE 17 24 9 13 1006.1 1006.0 0.0
17/04:30pm 23.7 21.8 16.7 65 4.3 ESE 22 30 12 16 1005.4 1005.3 0.0
17/04:00pm 24.4 22.2 16.9 63 4.6 SE 24 39 13 21 1005.6 1005.5 0.0
17/03:30pm 25.4 23.3 17.1 60 5.2 SE 24 35 13 19 1004.9 1004.8 0.0
17/03:00pm 26.5 25.0 17.6 58 5.6 SE 22 33 12 18 1004.7 1004.6 0.0
17/02:33pm 25.4 22.5 17.1 60 5.2 SSE 28 46 15 25 1004.8 1004.7 0.0
17/02:30pm 25.6 21.9 17.0 59 5.3 SSE 32 46 17 25 1005.0 1004.9 0.0
17/02:24pm 25.6 22.4 16.2 56 5.8 SE 28 46 15 25 1004.5 1004.4 0.0
17/02:00pm 28.2 26.7 18.6 56 6.2 ESE 24 33 13 18 1004.3 1004.2 0.0
17/01:30pm 29.3 27.4 19.3 55 6.5 ESE 28 37 15 20 1003.6 1003.5 0.0
17/01:00pm 29.9 28.7 19.3 53 6.9 ESE 24 33 13 18 1003.2 1003.1 0.0
17/12:30pm 31.0 28.5 17.0 43 8.9 ESE 26 35 14 19 1002.8 1002.7 0.0
17/12:15pm 32.6 30.2 12.8 30 11.8 W 17 39 9 21 1002.7 1002.6 0.0
17/12:00pm 38.3 35.1 11.4 20 16.2 W 19 33 10 18 1002.3 1002.2 0.0
17/11:30am 37.3 33.9 11.3 21 15.5 WNW 20 30 11 16 1002.3 1002.2 0.0
17/11:00am 36.9 33.3 11.7 22 15.1 NW 22 32 12 17 1002.3 1002.2 0.0
17/10:30am 36.1 33.4 13.6 26 13.8 WNW 20 33 11 18 1002.3 1002.2 0.0
17/10:00am 34.5 31.0 13.3 27 12.9 WNW 24 35 13 19 1002.3 1002.2 0.0
17/09:30am 33.0 30.1 14.1 32 11.5 WNW 22 30 12 16 1002.4 1002.3 0.0
17/09:00am 31.5 29.3 15.0 36 10.2 NW 20 28 11 15 1002.6 1002.5 0.0
17/08:30am 29.8 28.5 14.7 39 9.2 WNW 15 26 8 14 1002.7 1002.6 0.0
17/08:00am 28.1 27.1 15.7 46 7.6 WNW 15 22 8 12 1002.8 1002.7 0.0
17/07:30am 26.8 25.1 15.8 51 6.7 WNW 19 26 10 14 1002.6 1002.5 0.0
17/07:00am 25.0 23.0 15.6 56 5.7 WNW 20 24 11 13 1002.3 1002.2 0.0
17/06:30am 22.7 21.4 15.8 65 4.2 WNW 17 22 9 12 1001.8 1001.7 0.0
17/06:00am 21.3 20.4 15.8 71 3.3 WNW 15 17 8 9 1001.4 1001.3 0.0
17/05:30am 21.0 21.0 16.2 74 2.9 WNW 11 15 6 8 1001.1 1001.0 0.0
17/05:00am 21.3 20.7 16.7 75 2.8 WNW 15 22 8 12 1000.6 1000.5 0.0
17/04:30am 21.3 20.6 17.3 78 2.5 WNW 17 20 9 11 1000.4 1000.3 0.0
17/04:00am 21.0 21.8 17.4 80 2.2 NW 9 15 5 8 1000.5 1000.4 0.0
17/03:30am 20.4 21.8 17.4 83 1.8 NNW 6 11 3 6 1000.7 1000.6 0.0
17/03:00am 20.9 21.5 18.7 87 1.4 NNW 13 17 7 9 1000.9 1000.8 0.0
17/02:30am 20.7 22.1 18.6 88 1.3 NNW 9 13 5 7 1001.4 1001.3 0.0
17/02:00am 21.0 21.7 18.9 88 1.3 NW 13 19 7 10 1001.9 1001.8 0.0
17/01:30am 20.7 21.7 18.6 88 1.3 N 11 13 6 7 1002.0 1001.9 0.0
17/01:00am 20.8 22.2 18.6 87 1.4 N 9 11 5 6 1002.5 1002.4 0.0
17/12:30am 21.1 23.0 18.9 87 1.4 N 7 11 4 6 1003.0 1002.9 0.0
17/12:00am 21.0 22.8 18.8 87 1.4 NNE 7 9 4 5 1003.3 1003.2 0.0
 
Date/Time
EDT
Temp
°C
App
Temp
°C
Dew
Point
Rel
Hum
%
Delta-T
°C
Wind Press
QNH
hPa
Press
MSL
hPa
Rain
since 9 am
mm
Dir
 
Spd
km/h
Gust
km/h
Spd
kts
Gust
kts
16/11:30pm 21.4 23.3 18.6 84 1.8 NNW 6 9 3 5 1003.7 1003.6 0.0
16/11:00pm 21.5 23.0 18.9 85 1.6 NNE 9 11 5 6 1004.1 1004.0 0.0
16/10:30pm 21.8 23.3 18.8 83 1.9 NE 9 11 5 6 1004.6 1004.5 0.0
16/10:00pm 21.9 23.8 18.9 83 1.9 ENE 7 11 4 6 1004.8 1004.7 0.0
16/09:30pm 21.9 23.8 18.9 83 1.9 NNE 7 11 4 6 1004.6 1004.5 0.0
16/09:00pm 22.0 23.8 18.8 82 2.0 NE 7 9 4 5 1004.8 1004.7 0.0
16/08:30pm 22.1 24.2 18.9 82 2.0 SE 6 7 3 4 1005.1 1005.0 0.0
16/08:00pm 22.7 24.7 18.7 78 2.5 NE 6 9 3 5 1005.2 1005.1 0.0
16/07:30pm 22.9 24.6 18.4 76 2.8 NNE 7 11 4 6 1004.6 1004.5 0.0
16/07:00pm 23.4 23.5 18.3 73 3.2 NE 15 22 8 12 1003.5 1003.4 0.0
16/06:30pm 23.9 23.9 18.1 70 3.6 NE 15 22 8 12 1003.3 1003.2 0.0
16/06:00pm 24.5 23.8 18.2 68 4.0 ENE 19 24 10 13 1003.1 1003.0 0.0
16/05:30pm 25.3 24.8 17.7 62 4.8 ENE 17 26 9 14 1003.1 1003.0 0.0

Other Formats:

Comma delimited format used in spreadsheet applications
http://www.bom.gov.au/fwo/IDN60801/IDN60801.94785.axf

JavaScript Object Notation format (JSON) in row-major order
http://www.bom.gov.au/fwo/IDN60801/IDN60801.94785.json